sensor_id;sensor_type;location;lat;lon;timestamp;pressure;altitude;pressure_sealevel;temperature;humidity
69848;BME280;57143;55.940;37.496;2022-11-06T00:01:19;100086.06;;;-0.26;100.00
69848;BME280;57143;55.940;37.496;2022-11-06T00:03:46;100089.84;;;-0.38;100.00
69848;BME280;57143;55.940;37.496;2022-11-06T00:06:15;100081.28;;;-0.41;100.00
69848;BME280;57143;55.940;37.496;2022-11-06T00:09:01;100088.72;;;-0.54;100.00
69848;BME280;57143;55.940;37.496;2022-11-06T00:11:28;100065.00;;;-0.67;100.00
69848;BME280;57143;55.940;37.496;2022-11-06T00:13:56;100086.34;;;-0.48;100.00
69848;BME280;57143;55.940;37.496;2022-11-06T00:16:23;100070.63;;;-0.60;100.00
69848;BME280;57143;55.940;37.496;2022-11-06T00:18:50;100077.91;;;-0.62;100.00
69848;BME280;57143;55.940;37.496;2022-11-06T00:21:20;100075.53;;;-0.56;100.00
69848;BME280;57143;55.940;37.496;2022-11-06T00:23:47;100087.47;;;-0.50;100.00
69848;BME280;57143;55.940;37.496;2022-11-06T00:26:17;100076.38;;;-0.36;100.00
69848;BME280;57143;55.940;37.496;2022-11-06T00:28:45;100086.78;;;-0.33;100.00
69848;BME280;57143;55.940;37.496;2022-11-06T00:31:14;100088.31;;;-0.40;100.00
69848;BME280;57143;55.940;37.496;2022-11-06T00:33:42;100071.50;;;-0.50;100.00
69848;BME280;57143;55.940;37.496;2022-11-06T00:36:11;100086.91;;;-0.35;100.00
69848;BME280;57143;55.940;37.496;2022-11-06T00:38:40;100086.50;;;-0.30;100.00
69848;BME280;57143;55.940;37.496;2022-11-06T00:41:09;100058.59;;;-0.45;100.00
69848;BME280;57143;55.940;37.496;2022-11-06T00:43:36;100080.72;;;-0.45;100.00
69848;BME280;57143;55.940;37.496;2022-11-06T00:46:04;100084.22;;;-0.44;100.00
69848;BME280;57143;55.940;37.496;2022-11-06T00:48:32;100093.94;;;-0.43;100.00
69848;BME280;57143;55.940;37.496;2022-11-06T00:51:01;100096.44;;;-0.42;100.00
69848;BME280;57143;55.940;37.496;2022-11-06T00:53:28;100087.50;;;-0.31;100.00
69848;BME280;57143;55.940;37.496;2022-11-06T00:56:04;100075.13;;;-0.51;100.00
69848;BME280;57143;55.940;37.496;2022-11-06T00:58:31;100098.53;;;-0.36;100.00
69848;BME280;57143;55.940;37.496;2022-11-06T01:01:05;100109.91;;;-0.34;100.00
69848;BME280;57143;55.940;37.496;2022-11-06T01:03:32;100106.00;;;-0.30;100.00
69848;BME280;57143;55.940;37.496;2022-11-06T01:06:04;100107.94;;;-0.32;100.00
69848;BME280;57143;55.940;37.496;2022-11-06T01:08:31;100105.13;;;-0.30;100.00
69848;BME280;57143;55.940;37.496;2022-11-06T01:11:06;100087.19;;;-0.47;100.00
69848;BME280;57143;55.940;37.496;2022-11-06T01:13:34;100119.56;;;-0.42;100.00
69848;BME280;57143;55.940;37.496;2022-11-06T01:16:03;100116.59;;;-0.39;100.00
69848;BME280;57143;55.940;37.496;2022-11-06T01:18:31;100112.81;;;-0.46;100.00
69848;BME280;57143;55.940;37.496;2022-11-06T01:20:59;100105.38;;;-0.43;100.00
69848;BME280;57143;55.940;37.496;2022-11-06T01:23:29;100123.31;;;-0.45;100.00
69848;BME280;57143;55.940;37.496;2022-11-06T01:25:56;100125.88;;;-0.43;100.00
69848;BME280;57143;55.940;37.496;2022-11-06T01:28:26;100106.66;;;-0.47;100.00
69848;BME280;57143;55.940;37.496;2022-11-06T01:30:53;100086.88;;;-0.63;100.00
69848;BME280;57143;55.940;37.496;2022-11-06T01:33:20;100111.56;;;-0.42;100.00
69848;BME280;57143;55.940;37.496;2022-11-06T01:35:49;100111.84;;;-0.36;100.00
69848;BME280;57143;55.940;37.496;2022-11-06T01:38:17;100086.06;;;-0.45;100.00
69848;BME280;57143;55.940;37.496;2022-11-06T01:40:45;100104.69;;;-0.45;100.00
69848;BME280;57143;55.940;37.496;2022-11-06T01:43:15;100091.50;;;-0.46;100.00
69848;BME280;57143;55.940;37.496;2022-11-06T01:45:45;100090.13;;;-0.41;100.00
69848;BME280;57143;55.940;37.496;2022-11-06T01:48:14;100092.78;;;-0.41;100.00
69848;BME280;57143;55.940;37.496;2022-11-06T01:50:44;100088.00;;;-0.56;100.00
69848;BME280;57143;55.940;37.496;2022-11-06T01:53:12;100094.47;;;-0.59;100.00
69848;BME280;57143;55.940;37.496;2022-11-06T01:55:42;100069.50;;;-0.58;100.00
69848;BME280;57143;55.940;37.496;2022-11-06T01:58:12;100089.00;;;-0.48;100.00
69848;BME280;57143;55.940;37.496;2022-11-06T02:00:40;100081.56;;;-0.44;100.00
69848;BME280;57143;55.940;37.496;2022-11-06T02:03:10;100075.16;;;-0.42;100.00
69848;BME280;57143;55.940;37.496;2022-11-06T02:05:38;100063.38;;;-0.49;100.00
69848;BME280;57143;55.940;37.496;2022-11-06T02:08:07;100074.16;;;-0.41;100.00
69848;BME280;57143;55.940;37.496;2022-11-06T02:10:35;100060.44;;;-0.55;100.00
69848;BME280;57143;55.940;37.496;2022-11-06T02:13:26;100071.22;;;-0.47;100.00
69848;BME280;57143;55.940;37.496;2022-11-06T02:16:01;100076.81;;;-0.50;100.00
69848;BME280;57143;55.940;37.496;2022-11-06T02:18:47;100048.66;;;-0.62;100.00
69848;BME280;57143;55.940;37.496;2022-11-06T02:27:10;100073.44;;;-0.43;100.00
69848;BME280;57143;55.940;37.496;2022-11-06T02:29:46;100082.13;;;-0.41;100.00
69848;BME280;57143;55.940;37.496;2022-11-06T02:32:18;100016.69;;;-0.81;100.00
69848;BME280;57143;55.940;37.496;2022-11-06T02:34:49;100058.84;;;-0.48;100.00
69848;BME280;57143;55.940;37.496;2022-11-06T02:37:20;100068.84;;;-0.31;100.00
69848;BME280;57143;55.940;37.496;2022-11-06T02:39:50;100072.19;;;-0.39;100.00
69848;BME280;57143;55.940;37.496;2022-11-06T02:42:20;100062.22;;;-0.56;100.00
69848;BME280;57143;55.940;37.496;2022-11-06T02:44:51;100071.19;;;-0.38;100.00
69848;BME280;57143;55.940;37.496;2022-11-06T02:47:21;100073.63;;;-0.35;100.00
69848;BME280;57143;55.940;37.496;2022-11-06T02:49:53;100065.88;;;-0.38;100.00
69848;BME280;57143;55.940;37.496;2022-11-06T02:52:25;100053.69;;;-0.59;100.00
69848;BME280;57143;55.940;37.496;2022-11-06T02:54:57;100078.91;;;-0.54;100.00
69848;BME280;57143;55.940;37.496;2022-11-06T02:57:29;100022.84;;;-0.71;100.00
69848;BME280;57143;55.940;37.496;2022-11-06T03:00:02;100066.03;;;-0.49;100.00
69848;BME280;57143;55.940;37.496;2022-11-06T03:02:34;100064.47;;;-0.51;100.00
69848;BME280;57143;55.940;37.496;2022-11-06T03:05:05;100061.66;;;-0.50;100.00
69848;BME280;57143;55.940;37.496;2022-11-06T03:07:37;100061.09;;;-0.53;100.00
69848;BME280;57143;55.940;37.496;2022-11-06T03:10:06;100052.97;;;-0.52;100.00
69848;BME280;57143;55.940;37.496;2022-11-06T03:12:44;100056.22;;;-0.39;100.00
69848;BME280;57143;55.940;37.496;2022-11-06T03:15:19;100046.81;;;-0.43;100.00
69848;BME280;57143;55.940;37.496;2022-11-06T03:17:51;100059.03;;;-0.40;100.00
69848;BME280;57143;55.940;37.496;2022-11-06T03:20:28;100021.75;;;-0.59;100.00
69848;BME280;57143;55.940;37.496;2022-11-06T03:23:02;100056.50;;;-0.42;100.00
69848;BME280;57143;55.940;37.496;2022-11-06T03:25:36;100052.16;;;-0.52;100.00
69848;BME280;57143;55.940;37.496;2022-11-06T03:28:10;100059.03;;;-0.40;100.00
69848;BME280;57143;55.940;37.496;2022-11-06T03:30:43;100039.56;;;-0.50;100.00
69848;BME280;57143;55.940;37.496;2022-11-06T03:33:18;100018.94;;;-0.58;100.00
69848;BME280;57143;55.940;37.496;2022-11-06T03:35:50;100046.28;;;-0.37;100.00
69848;BME280;57143;55.940;37.496;2022-11-06T03:38:22;100053.13;;;-0.44;100.00
69848;BME280;57143;55.940;37.496;2022-11-06T03:40:54;100036.59;;;-0.66;100.00
69848;BME280;57143;55.940;37.496;2022-11-06T03:43:29;100034.91;;;-0.48;100.00
69848;BME280;57143;55.940;37.496;2022-11-06T03:46:01;100043.34;;;-0.43;100.00
69848;BME280;57143;55.940;37.496;2022-11-06T03:48:32;100033.53;;;-0.52;100.00
69848;BME280;57143;55.940;37.496;2022-11-06T03:51:03;100050.63;;;-0.45;100.00
69848;BME280;57143;55.940;37.496;2022-11-06T03:53:36;100047.66;;;-0.42;100.00
69848;BME280;57143;55.940;37.496;2022-11-06T03:56:07;100052.44;;;-0.46;100.00
69848;BME280;57143;55.940;37.496;2022-11-06T03:58:39;100020.59;;;-0.57;100.00
69848;BME280;57143;55.940;37.496;2022-11-06T04:01:10;100023.56;;;-0.60;100.00
69848;BME280;57143;55.940;37.496;2022-11-06T04:03:41;100038.13;;;-0.45;100.00
69848;BME280;57143;55.940;37.496;2022-11-06T04:06:12;100016.41;;;-0.59;100.00
69848;BME280;57143;55.940;37.496;2022-11-06T04:08:40;100031.56;;;-0.50;100.00
69848;BME280;57143;55.940;37.496;2022-11-06T04:11:34;100053.69;;;-0.59;100.00
69848;BME280;57143;55.940;37.496;2022-11-06T04:14:24;100052.41;;;-0.65;100.00
69848;BME280;57143;55.940;37.496;2022-11-06T04:16:55;100022.16;;;-0.73;100.00
69848;BME280;57143;55.940;37.496;2022-11-06T04:19:24;100050.31;;;-0.52;100.00
69848;BME280;57143;55.940;37.496;2022-11-06T04:22:23;100062.63;;;-0.70;100.00
69848;BME280;57143;55.940;37.496;2022-11-06T04:25:16;100068.53;;;-0.66;100.00
69848;BME280;57143;55.940;37.496;2022-11-06T04:28:14;100065.09;;;-0.87;100.00
69848;BME280;57143;55.940;37.496;2022-11-06T04:30:54;100041.53;;;-1.01;100.00
69848;BME280;57143;55.940;37.496;2022-11-06T04:33:26;100070.41;;;-0.97;100.00
69848;BME280;57143;55.940;37.496;2022-11-06T04:36:02;100073.81;;;-0.85;100.00
69848;BME280;57143;55.940;37.496;2022-11-06T04:38:36;100072.38;;;-0.89;100.00
69848;BME280;57143;55.940;37.496;2022-11-06T04:41:11;100065.47;;;-1.11;100.00
69848;BME280;57143;55.940;37.496;2022-11-06T04:43:47;100090.44;;;-0.93;100.00
69848;BME280;57143;55.940;37.496;2022-11-06T04:46:20;100085.81;;;-0.91;100.00
69848;BME280;57143;55.940;37.496;2022-11-06T04:48:50;100088.78;;;-0.84;100.00
69848;BME280;57143;55.940;37.496;2022-11-06T04:51:20;100072.78;;;-0.94;100.00
69848;BME280;57143;55.940;37.496;2022-11-06T04:53:50;100071.28;;;-0.87;100.00
69848;BME280;57143;55.940;37.496;2022-11-06T04:56:22;100093.13;;;-0.83;100.00
69848;BME280;57143;55.940;37.496;2022-11-06T04:58:51;100078.69;;;-0.90;100.00
69848;BME280;57143;55.940;37.496;2022-11-06T05:01:19;100089.47;;;-0.82;100.00
69848;BME280;57143;55.940;37.496;2022-11-06T05:03:47;100095.88;;;-0.94;100.00
69848;BME280;57143;55.940;37.496;2022-11-06T05:06:14;100092.66;;;-0.98;100.00
69848;BME280;57143;55.940;37.496;2022-11-06T05:08:41;100095.78;;;-0.83;100.00
69848;BME280;57143;55.940;37.496;2022-11-06T05:11:08;100085.00;;;-0.82;100.00
69848;BME280;57143;55.940;37.496;2022-11-06T05:13:35;100091.31;;;-0.83;100.00
69848;BME280;57143;55.940;37.496;2022-11-06T05:16:03;100099.25;;;-0.92;100.00
69848;BME280;57143;55.940;37.496;2022-11-06T05:18:31;100105.75;;;-0.76;100.00
69848;BME280;57143;55.940;37.496;2022-11-06T05:20:59;100092.13;;;-0.92;100.00
69848;BME280;57143;55.940;37.496;2022-11-06T05:23:43;100103.22;;;-0.77;100.00
69848;BME280;57143;55.940;37.496;2022-11-06T05:26:10;100105.16;;;-0.89;100.00
69848;BME280;57143;55.940;37.496;2022-11-06T05:28:38;100107.72;;;-0.78;100.00
69848;BME280;57143;55.940;37.496;2022-11-06T05:31:05;100112.84;;;-0.86;100.00
69848;BME280;57143;55.940;37.496;2022-11-06T05:33:33;100106.00;;;-0.88;100.00
69848;BME280;57143;55.940;37.496;2022-11-06T05:36:01;100105.88;;;-0.77;100.00
69848;BME280;57143;55.940;37.496;2022-11-06T05:38:28;100107.81;;;-0.79;100.00
69848;BME280;57143;55.940;37.496;2022-11-06T05:40:55;100099.59;;;-0.76;100.00
69848;BME280;57143;55.940;37.496;2022-11-06T05:43:22;100104.63;;;-0.73;100.00
69848;BME280;57143;55.940;37.496;2022-11-06T05:45:50;100106.38;;;-0.93;100.00
69848;BME280;57143;55.940;37.496;2022-11-06T05:48:17;100103.47;;;-0.90;100.00
69848;BME280;57143;55.940;37.496;2022-11-06T05:50:45;100096.75;;;-0.84;100.00
69848;BME280;57143;55.940;37.496;2022-11-06T05:53:12;100098.03;;;-0.88;100.00
69848;BME280;57143;55.940;37.496;2022-11-06T05:55:39;100058.50;;;-1.02;100.00
69848;BME280;57143;55.940;37.496;2022-11-06T05:58:06;100087.97;;;-0.75;100.00
69848;BME280;57143;55.940;37.496;2022-11-06T06:00:33;100088.97;;;-0.76;100.00
69848;BME280;57143;55.940;37.496;2022-11-06T06:03:00;100110.94;;;-0.74;100.00
69848;BME280;57143;55.940;37.496;2022-11-06T06:05:28;100107.72;;;-0.68;100.00
69848;BME280;57143;55.940;37.496;2022-11-06T06:07:56;100099.22;;;-0.62;100.00
69848;BME280;57143;55.940;37.496;2022-11-06T06:10:23;100094.41;;;-0.68;100.00
69848;BME280;57143;55.940;37.496;2022-11-06T06:12:50;100093.59;;;-0.59;100.00
69848;BME280;57143;55.940;37.496;2022-11-06T06:15:17;100092.91;;;-0.52;100.00
69848;BME280;57143;55.940;37.496;2022-11-06T06:17:44;100091.94;;;-0.51;100.00
69848;BME280;57143;55.940;37.496;2022-11-06T06:20:12;100082.41;;;-0.53;100.00
69848;BME280;57143;55.940;37.496;2022-11-06T06:22:39;100098.78;;;-0.48;100.00
69848;BME280;57143;55.940;37.496;2022-11-06T06:25:08;100098.69;;;-0.37;100.00
69848;BME280;57143;55.940;37.496;2022-11-06T06:27:36;100100.63;;;-0.39;100.00
69848;BME280;57143;55.940;37.496;2022-11-06T06:30:04;100103.69;;;-0.53;100.00
69848;BME280;57143;55.940;37.496;2022-11-06T06:32:32;100106.66;;;-0.47;100.00
69848;BME280;57143;55.940;37.496;2022-11-06T06:34:59;100119.13;;;-0.38;100.00
69848;BME280;57143;55.940;37.496;2022-11-06T06:37:26;100117.88;;;-0.43;100.00
69848;BME280;57143;55.940;37.496;2022-11-06T06:39:53;100113.25;;;-0.41;100.00
69848;BME280;57143;55.940;37.496;2022-11-06T06:42:21;100109.91;;;-0.43;100.00
69848;BME280;57143;55.940;37.496;2022-11-06T06:44:48;100118.56;;;-0.51;100.00
69848;BME280;57143;55.940;37.496;2022-11-06T06:47:15;100130.72;;;-0.58;100.00
69848;BME280;57143;55.940;37.496;2022-11-06T06:49:42;100126.06;;;-0.65;100.00
69848;BME280;57143;55.940;37.496;2022-11-06T06:52:09;100125.25;;;-0.66;100.00
69848;BME280;57143;55.940;37.496;2022-11-06T06:54:37;100115.56;;;-0.67;100.00
69848;BME280;57143;55.940;37.496;2022-11-06T06:57:06;100073.53;;;-0.82;100.00
69848;BME280;57143;55.940;37.496;2022-11-06T06:59:35;100132.97;;;-0.53;100.00
69848;BME280;57143;55.940;37.496;2022-11-06T07:02:02;100132.53;;;-0.58;100.00
69848;BME280;57143;55.940;37.496;2022-11-06T07:04:29;100119.00;;;-0.55;100.00
69848;BME280;57143;55.940;37.496;2022-11-06T07:06:56;100126.69;;;-0.52;100.00
69848;BME280;57143;55.940;37.496;2022-11-06T07:09:23;100129.78;;;-0.47;100.00
69848;BME280;57143;55.940;37.496;2022-11-06T07:11:49;100125.31;;;-0.47;100.00
69848;BME280;57143;55.940;37.496;2022-11-06T07:14:16;100133.97;;;-0.54;100.00
69848;BME280;57143;55.940;37.496;2022-11-06T07:16:45;100144.47;;;-0.62;100.00
69848;BME280;57143;55.940;37.496;2022-11-06T07:19:13;100134.81;;;-0.54;100.00
69848;BME280;57143;55.940;37.496;2022-11-06T07:21:40;100140.09;;;-0.63;100.00
69848;BME280;57143;55.940;37.496;2022-11-06T07:24:07;100145.59;;;-0.55;100.00
69848;BME280;57143;55.940;37.496;2022-11-06T07:26:34;100126.06;;;-0.75;100.00
69848;BME280;57143;55.940;37.496;2022-11-06T07:29:01;100153.25;;;-0.71;100.00
69848;BME280;57143;55.940;37.496;2022-11-06T07:31:30;100145.69;;;-0.66;100.00
69848;BME280;57143;55.940;37.496;2022-11-06T07:33:58;100138.16;;;-0.61;100.00
69848;BME280;57143;55.940;37.496;2022-11-06T07:36:25;100123.84;;;-0.60;100.00
69848;BME280;57143;55.940;37.496;2022-11-06T07:38:52;100131.72;;;-0.49;100.00
69848;BME280;57143;55.940;37.496;2022-11-06T07:41:19;100127.66;;;-0.53;100.00
69848;BME280;57143;55.940;37.496;2022-11-06T07:43:48;100114.63;;;-0.56;100.00
69848;BME280;57143;55.940;37.496;2022-11-06T07:46:15;100111.28;;;-0.39;100.00
69848;BME280;57143;55.940;37.496;2022-11-06T07:48:42;100113.53;;;-0.54;100.00
69848;BME280;57143;55.940;37.496;2022-11-06T07:51:10;100104.41;;;-0.51;100.00
69848;BME280;57143;55.940;37.496;2022-11-06T07:53:37;100121.50;;;-0.44;100.00
69848;BME280;57143;55.940;37.496;2022-11-06T07:56:05;100111.16;;;-0.47;100.00
69848;BME280;57143;55.940;37.496;2022-11-06T07:58:33;100095.28;;;-0.68;100.00
69848;BME280;57143;55.940;37.496;2022-11-06T08:01:00;100113.03;;;-0.78;100.00
69848;BME280;57143;55.940;37.496;2022-11-06T08:03:28;100123.16;;;-0.62;100.00
69848;BME280;57143;55.940;37.496;2022-11-06T08:05:55;100065.81;;;-0.76;100.00
69848;BME280;57143;55.940;37.496;2022-11-06T08:08:24;100105.94;;;-0.58;100.00
69848;BME280;57143;55.940;37.496;2022-11-06T08:10:51;100109.59;;;-0.50;100.00
69848;BME280;57143;55.940;37.496;2022-11-06T08:13:18;100109.91;;;-0.43;100.00
69848;BME280;57143;55.940;37.496;2022-11-06T08:15:45;100106.38;;;-0.44;100.00
69848;BME280;57143;55.940;37.496;2022-11-06T08:18:13;100110.00;;;-0.45;100.00
69848;BME280;57143;55.940;37.496;2022-11-06T08:20:40;100099.94;;;-0.41;100.00
69848;BME280;57143;55.940;37.496;2022-11-06T08:23:10;100097.41;;;-0.52;100.00
69848;BME280;57143;55.940;37.496;2022-11-06T08:25:39;100089.97;;;-0.58;100.00
69848;BME280;57143;55.940;37.496;2022-11-06T08:28:06;100111.16;;;-0.47;100.00
69848;BME280;57143;55.940;37.496;2022-11-06T08:30:33;100107.94;;;-0.32;100.00
69848;BME280;57143;55.940;37.496;2022-11-06T08:33:01;100108.94;;;-0.23;100.00
69848;BME280;57143;55.940;37.496;2022-11-06T08:35:28;100102.31;;;-0.57;100.00
69848;BME280;57143;55.940;37.496;2022-11-06T08:37:56;100116.75;;;-0.50;100.00
69848;BME280;57143;55.940;37.496;2022-11-06T08:40:23;100103.41;;;-0.69;100.00
69848;BME280;57143;55.940;37.496;2022-11-06T08:42:52;100105.22;;;-0.60;100.00
69848;BME280;57143;55.940;37.496;2022-11-06T08:45:19;100111.69;;;-0.53;100.00
69848;BME280;57143;55.940;37.496;2022-11-06T08:47:46;100104.00;;;-0.37;100.00
69848;BME280;57143;55.940;37.496;2022-11-06T08:50:13;100104.00;;;-0.47;100.00
69848;BME280;57143;55.940;37.496;2022-11-06T08:52:40;100094.34;;;-0.38;100.00
69848;BME280;57143;55.940;37.496;2022-11-06T08:55:08;100073.59;;;-0.54;100.00
69848;BME280;57143;55.940;37.496;2022-11-06T08:57:35;100084.09;;;-0.43;100.00
69848;BME280;57143;55.940;37.496;2022-11-06T09:00:04;100092.38;;;-0.36;100.00
69848;BME280;57143;55.940;37.496;2022-11-06T09:02:32;100098.25;;;-0.33;100.00
69848;BME280;57143;55.940;37.496;2022-11-06T09:04:59;100089.31;;;-0.32;100.00
69848;BME280;57143;55.940;37.496;2022-11-06T09:07:26;100074.56;;;-0.45;100.00
69848;BME280;57143;55.940;37.496;2022-11-06T09:09:53;100083.13;;;-0.42;100.00
69848;BME280;57143;55.940;37.496;2022-11-06T09:12:20;100088.88;;;-0.37;100.00
69848;BME280;57143;55.940;37.496;2022-11-06T09:14:47;100077.50;;;-0.29;100.00
69848;BME280;57143;55.940;37.496;2022-11-06T09:17:16;100062.09;;;-0.45;100.00
69848;BME280;57143;55.940;37.496;2022-11-06T09:19:47;100076.81;;;-0.41;100.00
69848;BME280;57143;55.940;37.496;2022-11-06T09:22:15;100094.06;;;-0.26;100.00
69848;BME280;57143;55.940;37.496;2022-11-06T09:24:42;100095.47;;;-0.31;100.00
69848;BME280;57143;55.940;37.496;2022-11-06T09:27:09;100088.31;;;-0.31;100.00
69848;BME280;57143;55.940;37.496;2022-11-06T09:29:36;100083.53;;;-0.46;100.00
69848;BME280;57143;55.940;37.496;2022-11-06T09:32:05;100080.19;;;-0.39;100.00
69848;BME280;57143;55.940;37.496;2022-11-06T09:34:33;100068.28;;;-0.35;100.00
69848;BME280;57143;55.940;37.496;2022-11-06T09:37:00;100065.88;;;-0.38;100.00
69848;BME280;57143;55.940;37.496;2022-11-06T09:39:28;100066.44;;;-0.44;100.00
69848;BME280;57143;55.940;37.496;2022-11-06T09:41:57;100067.97;;;-0.41;100.00
69848;BME280;57143;55.940;37.496;2022-11-06T09:44:38;100043.19;;;-0.42;100.00
69848;BME280;57143;55.940;37.496;2022-11-06T09:47:16;100030.69;;;-0.41;100.00
69848;BME280;57143;55.940;37.496;2022-11-06T09:49:49;100004.50;;;-0.46;100.00
69848;BME280;57143;55.940;37.496;2022-11-06T09:52:24;100041.38;;;-0.13;100.00
69848;BME280;57143;55.940;37.496;2022-11-06T09:54:59;100040.78;;;-0.07;100.00
69848;BME280;57143;55.940;37.496;2022-11-06T09:57:34;100044.41;;;0.02;100.00
69848;BME280;57143;55.940;37.496;2022-11-06T10:00:05;100045.13;;;-0.15;100.00
69848;BME280;57143;55.940;37.496;2022-11-06T10:02:39;100047.50;;;-0.12;100.00
69848;BME280;57143;55.940;37.496;2022-11-06T10:05:13;100049.66;;;-0.16;100.00
69848;BME280;57143;55.940;37.496;2022-11-06T10:07:44;100027.88;;;-0.21;100.00
69848;BME280;57143;55.940;37.496;2022-11-06T10:10:15;100044.16;;;-0.14;100.00
69848;BME280;57143;55.940;37.496;2022-11-06T10:12:56;100048.94;;;-0.18;100.00
69848;BME280;57143;55.940;37.496;2022-11-06T10:15:32;100058.19;;;-0.22;100.00
69848;BME280;57143;55.940;37.496;2022-11-06T10:18:05;100054.09;;;-0.26;100.00
69848;BME280;57143;55.940;37.496;2022-11-06T10:20:45;100051.59;;;-0.18;100.00
69848;BME280;57143;55.940;37.496;2022-11-06T10:23:19;100055.38;;;-0.11;100.00
69848;BME280;57143;55.940;37.496;2022-11-06T10:25:58;100052.03;;;-0.13;100.00
69848;BME280;57143;55.940;37.496;2022-11-06T10:28:48;100046.13;;;-0.26;100.00
69848;BME280;57143;55.940;37.496;2022-11-06T10:31:24;100052.84;;;-0.12;100.00
69848;BME280;57143;55.940;37.496;2022-11-06T10:33:57;100054.81;;;-0.24;100.00
69848;BME280;57143;55.940;37.496;2022-11-06T10:36:33;100056.78;;;-0.26;100.00
69848;BME280;57143;55.940;37.496;2022-11-06T10:39:03;100069.25;;;-0.17;100.00
69848;BME280;57143;55.940;37.496;2022-11-06T10:41:37;100074.16;;;-0.12;100.00
69848;BME280;57143;55.940;37.496;2022-11-06T10:44:09;100066.16;;;-0.12;100.00
69848;BME280;57143;55.940;37.496;2022-11-06T10:46:42;100055.38;;;-0.11;100.00
69848;BME280;57143;55.940;37.496;2022-11-06T10:49:17;100063.06;;;0.02;100.00
69848;BME280;57143;55.940;37.496;2022-11-06T10:52:00;100067.28;;;0.05;100.00
69848;BME280;57143;55.940;37.496;2022-11-06T10:54:41;100068.13;;;-0.05;100.00
69848;BME280;57143;55.940;37.496;2022-11-06T10:57:20;100055.66;;;-0.14;100.00
69848;BME280;57143;55.940;37.496;2022-11-06T10:59:50;100053.28;;;-0.07;100.00
69848;BME280;57143;55.940;37.496;2022-11-06T11:02:23;100053.69;;;-0.02;100.00
69848;BME280;57143;55.940;37.496;2022-11-06T11:04:52;100060.53;;;0.00;100.00
69848;BME280;57143;55.940;37.496;2022-11-06T11:07:21;100024.78;;;-0.07;100.00
69848;BME280;57143;55.940;37.496;2022-11-06T11:09:48;100046.22;;;0.11;100.00
69848;BME280;57143;55.940;37.496;2022-11-06T11:12:21;100051.13;;;0.16;100.00
69848;BME280;57143;55.940;37.496;2022-11-06T11:15:10;100035.84;;;0.18;100.00
69848;BME280;57143;55.940;37.496;2022-11-06T11:17:40;100050.44;;;0.04;100.00
69848;BME280;57143;55.940;37.496;2022-11-06T11:20:29;100051.84;;;0.08;100.00
69848;BME280;57143;55.940;37.496;2022-11-06T11:23:13;100053.22;;;0.22;100.00
69848;BME280;57143;55.940;37.496;2022-11-06T11:25:43;100033.34;;;0.07;100.00
69848;BME280;57143;55.940;37.496;2022-11-06T11:28:28;100031.94;;;0.12;100.00
69848;BME280;57143;55.940;37.496;2022-11-06T11:31:03;100034.16;;;0.17;100.00
69848;BME280;57143;55.940;37.496;2022-11-06T11:33:32;100000.16;;;-0.18;100.00
69848;BME280;57143;55.940;37.496;2022-11-06T11:35:59;100035.56;;;0.11;100.00
69848;BME280;57143;55.940;37.496;2022-11-06T11:38:30;100023.50;;;0.07;100.00
69848;BME280;57143;55.940;37.496;2022-11-06T11:41:05;100021.56;;;-0.01;100.00
69848;BME280;57143;55.940;37.496;2022-11-06T11:43:33;100031.25;;;0.00;100.00
69848;BME280;57143;55.940;37.496;2022-11-06T11:46:17;100038.94;;;0.03;100.00
69848;BME280;57143;55.940;37.496;2022-11-06T11:48:46;100034.47;;;0.04;100.00
69848;BME280;57143;55.940;37.496;2022-11-06T11:51:26;100026.63;;;0.03;100.00
69848;BME280;57143;55.940;37.496;2022-11-06T11:53:58;100032.34;;;0.08;100.00
69848;BME280;57143;55.940;37.496;2022-11-06T11:56:27;100025.50;;;-0.05;100.00
69848;BME280;57143;55.940;37.496;2022-11-06T11:58:56;100026.16;;;0.07;100.00
69848;BME280;57143;55.940;37.496;2022-11-06T12:01:34;100018.75;;;0.01;100.00
69848;BME280;57143;55.940;37.496;2022-11-06T12:04:19;100020.44;;;0.02;100.00
69848;BME280;57143;55.940;37.496;2022-11-06T12:06:52;100021.88;;;-0.13;100.00
69848;BME280;57143;55.940;37.496;2022-11-06T12:09:22;100024.78;;;-0.07;100.00
69848;BME280;57143;55.940;37.496;2022-11-06T12:11:51;99998.88;;;-0.14;100.00
69848;BME280;57143;55.940;37.496;2022-11-06T12:14:29;99997.34;;;-0.17;100.00
69848;BME280;57143;55.940;37.496;2022-11-06T12:17:01;100005.19;;;-0.06;100.00
69848;BME280;57143;55.940;37.496;2022-11-06T12:19:32;100013.13;;;0.04;100.00
69848;BME280;57143;55.940;37.496;2022-11-06T12:22:05;100016.09;;;-0.09;100.00
69848;BME280;57143;55.940;37.496;2022-11-06T12:24:40;100007.28;;;-0.09;100.00
69848;BME280;57143;55.940;37.496;2022-11-06T12:27:13;100015.69;;;-0.14;100.00
69848;BME280;57143;55.940;37.496;2022-11-06T12:29:46;100002.94;;;-0.29;100.00
69848;BME280;57143;55.940;37.496;2022-11-06T12:32:23;100011.66;;;-0.27;100.00
69848;BME280;57143;55.940;37.496;2022-11-06T12:34:59;100010.66;;;-0.36;100.00
69848;BME280;57143;55.940;37.496;2022-11-06T12:37:38;100012.63;;;-0.28;100.00
69848;BME280;57143;55.940;37.496;2022-11-06T12:40:17;100006.59;;;-0.40;100.00
69848;BME280;57143;55.940;37.496;2022-11-06T12:42:59;100020.06;;;-0.32;100.00
69848;BME280;57143;55.940;37.496;2022-11-06T12:45:37;100005.91;;;-0.32;100.00
69848;BME280;57143;55.940;37.496;2022-11-06T12:48:16;100001.81;;;-0.36;100.00
69848;BME280;57143;55.940;37.496;2022-11-06T12:50:53;99996.09;;;-0.32;100.00
69848;BME280;57143;55.940;37.496;2022-11-06T12:53:37;99990.91;;;-0.24;100.00
69848;BME280;57143;55.940;37.496;2022-11-06T12:56:15;99960.91;;;-0.45;100.00